sensor_id;sensor_type;location;lat;lon;timestamp;temperature;humidity
17007;DHT22;8620;51.168;4.154;2023-04-16T07:01:27;10.10;99.90
17007;DHT22;8620;51.168;4.154;2023-04-16T07:04:01;10.00;99.90
17007;DHT22;8620;51.168;4.154;2023-04-16T07:06:38;9.80;99.90
17007;DHT22;8620;51.168;4.154;2023-04-16T07:09:12;10.10;99.90
17007;DHT22;8620;51.168;4.154;2023-04-16T07:11:44;10.30;99.90
17007;DHT22;8620;51.168;4.154;2023-04-16T07:14:15;10.20;99.90
17007;DHT22;8620;51.168;4.154;2023-04-16T07:16:55;10.10;99.90
17007;DHT22;8620;51.168;4.154;2023-04-16T07:19:21;10.30;99.90
17007;DHT22;8620;51.168;4.154;2023-04-16T07:21:52;10.50;99.90
17007;DHT22;8620;51.168;4.154;2023-04-16T07:24:24;10.50;99.90
17007;DHT22;8620;51.168;4.154;2023-04-16T07:26:58;10.60;99.90
17007;DHT22;8620;51.168;4.154;2023-04-16T07:29:35;10.50;99.90
17007;DHT22;8620;51.168;4.154;2023-04-16T07:32:12;10.60;99.90
17007;DHT22;8620;51.168;4.154;2023-04-16T07:34:49;10.60;99.90
17007;DHT22;8620;51.168;4.154;2023-04-16T07:37:23;10.70;99.90
17007;DHT22;8620;51.168;4.154;2023-04-16T07:40:00;10.90;99.90
17007;DHT22;8620;51.168;4.154;2023-04-16T07:42:34;10.50;99.90
17007;DHT22;8620;51.168;4.154;2023-04-16T07:45:11;10.30;99.90
17007;DHT22;8620;51.168;4.154;2023-04-16T07:47:42;10.30;99.90
17007;DHT22;8620;51.168;4.154;2023-04-16T07:50:17;10.50;99.90
17007;DHT22;8620;51.168;4.154;2023-04-16T07:52:49;10.60;99.90
17007;DHT22;8620;51.168;4.154;2023-04-16T07:55:20;10.70;99.90
17007;DHT22;8620;51.168;4.154;2023-04-16T07:58:02;10.80;99.90
17007;DHT22;8620;51.168;4.154;2023-04-16T08:00:34;11.10;99.90
17007;DHT22;8620;51.168;4.154;2023-04-16T08:03:05;10.90;99.90
17007;DHT22;8620;51.168;4.154;2023-04-16T08:05:34;11.00;99.90
17007;DHT22;8620;51.168;4.154;2023-04-16T08:08:00;11.00;99.90
17007;DHT22;8620;51.168;4.154;2023-04-16T08:10:32;10.90;99.90
17007;DHT22;8620;51.168;4.154;2023-04-16T08:12:59;10.70;99.90
17007;DHT22;8620;51.168;4.154;2023-04-16T08:15:26;10.60;99.90
17007;DHT22;8620;51.168;4.154;2023-04-16T08:17:52;10.50;99.90
17007;DHT22;8620;51.168;4.154;2023-04-16T08:20:29;10.60;99.90
17007;DHT22;8620;51.168;4.154;2023-04-16T08:23:03;10.90;99.90
17007;DHT22;8620;51.168;4.154;2023-04-16T08:25:38;10.90;99.90
17007;DHT22;8620;51.168;4.154;2023-04-16T08:28:10;10.60;99.90
17007;DHT22;8620;51.168;4.154;2023-04-16T08:30:47;10.70;99.90
17007;DHT22;8620;51.168;4.154;2023-04-16T08:33:14;10.70;99.90
17007;DHT22;8620;51.168;4.154;2023-04-16T08:35:45;10.90;99.90
17007;DHT22;8620;51.168;4.154;2023-04-16T08:38:23;10.90;99.90
17007;DHT22;8620;51.168;4.154;2023-04-16T08:41:07;11.10;99.90
17007;DHT22;8620;51.168;4.154;2023-04-16T08:43:49;11.30;99.90
17007;DHT22;8620;51.168;4.154;2023-04-16T08:46:44;11.20;99.90
17007;DHT22;8620;51.168;4.154;2023-04-16T08:49:15;11.20;99.90
17007;DHT22;8620;51.168;4.154;2023-04-16T08:51:56;11.00;99.90
17007;DHT22;8620;51.168;4.154;2023-04-16T08:54:38;11.40;99.90
17007;DHT22;8620;51.168;4.154;2023-04-16T08:57:23;11.30;99.90
17007;DHT22;8620;51.168;4.154;2023-04-16T09:00:05;11.30;99.90
17007;DHT22;8620;51.168;4.154;2023-04-16T09:02:47;11.20;99.90
17007;DHT22;8620;51.168;4.154;2023-04-16T09:05:25;11.20;99.90
17007;DHT22;8620;51.168;4.154;2023-04-16T09:08:06;11.10;99.90
17007;DHT22;8620;51.168;4.154;2023-04-16T09:10:45;11.20;99.90
17007;DHT22;8620;51.168;4.154;2023-04-16T09:13:18;11.30;99.90
17007;DHT22;8620;51.168;4.154;2023-04-16T09:16:20;11.40;99.90
17007;DHT22;8620;51.168;4.154;2023-04-16T09:21:48;11.70;99.90
17007;DHT22;8620;51.168;4.154;2023-04-16T09:24:40;11.40;99.90
17007;DHT22;8620;51.168;4.154;2023-04-16T09:27:13;11.20;99.90
17007;DHT22;8620;51.168;4.154;2023-04-16T09:30:01;11.20;99.90
17007;DHT22;8620;51.168;4.154;2023-04-16T09:33:13;11.20;99.90
17007;DHT22;8620;51.168;4.154;2023-04-16T09:35:57;11.10;99.90
17007;DHT22;8620;51.168;4.154;2023-04-16T09:38:50;11.30;99.90
17007;DHT22;8620;51.168;4.154;2023-04-16T09:41:31;11.30;99.90
17007;DHT22;8620;51.168;4.154;2023-04-16T09:44:33;11.20;99.90
17007;DHT22;8620;51.168;4.154;2023-04-16T09:47:08;11.40;99.90
17007;DHT22;8620;51.168;4.154;2023-04-16T09:49:49;11.30;99.90
17007;DHT22;8620;51.168;4.154;2023-04-16T09:55:59;11.10;99.90
17007;DHT22;8620;51.168;4.154;2023-04-16T09:58:46;11.00;99.90
17007;DHT22;8620;51.168;4.154;2023-04-16T10:01:18;11.20;99.90
17007;DHT22;8620;51.168;4.154;2023-04-16T10:03:52;11.20;99.90
17007;DHT22;8620;51.168;4.154;2023-04-16T10:06:29;11.20;99.90
17007;DHT22;8620;51.168;4.154;2023-04-16T10:09:15;11.20;99.90
17007;DHT22;8620;51.168;4.154;2023-04-16T10:11:47;11.10;99.90
17007;DHT22;8620;51.168;4.154;2023-04-16T10:14:24;11.20;99.90
17007;DHT22;8620;51.168;4.154;2023-04-16T10:16:59;11.00;99.90
17007;DHT22;8620;51.168;4.154;2023-04-16T10:20:23;11.30;99.90
17007;DHT22;8620;51.168;4.154;2023-04-16T10:33:34;10.10;99.90
17007;DHT22;8620;51.168;4.154;2023-04-16T10:36:56;10.40;99.90
17007;DHT22;8620;51.168;4.154;2023-04-16T10:43:16;11.10;99.90
17007;DHT22;8620;51.168;4.154;2023-04-16T10:49:11;11.30;99.90
17007;DHT22;8620;51.168;4.154;2023-04-16T10:52:06;11.20;99.90
17007;DHT22;8620;51.168;4.154;2023-04-16T10:55:15;11.10;99.90
17007;DHT22;8620;51.168;4.154;2023-04-16T10:58:00;11.30;99.90
17007;DHT22;8620;51.168;4.154;2023-04-16T11:00:57;11.30;99.90
17007;DHT22;8620;51.168;4.154;2023-04-16T11:03:57;11.20;99.90
17007;DHT22;8620;51.168;4.154;2023-04-16T11:06:37;11.40;99.90
17007;DHT22;8620;51.168;4.154;2023-04-16T11:16:00;11.10;99.90
17007;DHT22;8620;51.168;4.154;2023-04-16T11:18:33;11.20;99.90
17007;DHT22;8620;51.168;4.154;2023-04-16T11:21:42;11.10;99.90
17007;DHT22;8620;51.168;4.154;2023-04-16T11:24:35;11.40;99.90
17007;DHT22;8620;51.168;4.154;2023-04-16T11:27:04;11.60;99.90
17007;DHT22;8620;51.168;4.154;2023-04-16T11:29:35;11.70;99.90
17007;DHT22;8620;51.168;4.154;2023-04-16T11:32:06;11.80;99.90
17007;DHT22;8620;51.168;4.154;2023-04-16T11:34:53;11.90;99.90
17007;DHT22;8620;51.168;4.154;2023-04-16T11:37:32;11.70;99.90
17007;DHT22;8620;51.168;4.154;2023-04-16T11:39:58;11.80;99.90
17007;DHT22;8620;51.168;4.154;2023-04-16T11:42:34;11.80;99.90
17007;DHT22;8620;51.168;4.154;2023-04-16T11:45:12;12.00;99.90
17007;DHT22;8620;51.168;4.154;2023-04-16T11:47:58;11.90;99.90
17007;DHT22;8620;51.168;4.154;2023-04-16T11:51:08;11.90;99.90
17007;DHT22;8620;51.168;4.154;2023-04-16T11:53:49;11.90;99.90
17007;DHT22;8620;51.168;4.154;2023-04-16T11:57:07;12.10;99.90
17007;DHT22;8620;51.168;4.154;2023-04-16T12:00:13;12.10;99.90
17007;DHT22;8620;51.168;4.154;2023-04-16T12:02:56;11.90;99.90
17007;DHT22;8620;51.168;4.154;2023-04-16T12:05:39;12.00;99.90
17007;DHT22;8620;51.168;4.154;2023-04-16T12:08:43;12.00;99.90
17007;DHT22;8620;51.168;4.154;2023-04-16T12:11:12;12.20;99.90
17007;DHT22;8620;51.168;4.154;2023-04-16T12:14:12;12.20;99.90
17007;DHT22;8620;51.168;4.154;2023-04-16T12:17:10;12.20;99.90
17007;DHT22;8620;51.168;4.154;2023-04-16T12:19:59;12.20;99.90
17007;DHT22;8620;51.168;4.154;2023-04-16T12:22:57;12.50;99.90
17007;DHT22;8620;51.168;4.154;2023-04-16T12:25:46;12.70;99.90
17007;DHT22;8620;51.168;4.154;2023-04-16T12:34:31;12.30;99.90
17007;DHT22;8620;51.168;4.154;2023-04-16T12:37:50;12.50;99.90
17007;DHT22;8620;51.168;4.154;2023-04-16T12:40:38;13.00;99.90
17007;DHT22;8620;51.168;4.154;2023-04-16T12:43:32;13.00;99.90
17007;DHT22;8620;51.168;4.154;2023-04-16T12:46:38;13.00;99.90
17007;DHT22;8620;51.168;4.154;2023-04-16T12:49:30;12.70;99.90
17007;DHT22;8620;51.168;4.154;2023-04-16T12:52:33;12.30;99.90
17007;DHT22;8620;51.168;4.154;2023-04-16T12:55:23;12.30;99.90
17007;DHT22;8620;51.168;4.154;2023-04-16T12:58:12;12.40;99.90
17007;DHT22;8620;51.168;4.154;2023-04-16T13:01:04;12.60;99.90
17007;DHT22;8620;51.168;4.154;2023-04-16T13:04:10;12.70;99.90
17007;DHT22;8620;51.168;4.154;2023-04-16T13:06:56;12.80;99.90
17007;DHT22;8620;51.168;4.154;2023-04-16T13:09:53;12.80;99.90
17007;DHT22;8620;51.168;4.154;2023-04-16T13:12:41;13.00;99.90
17007;DHT22;8620;51.168;4.154;2023-04-16T13:15:31;13.10;99.90
17007;DHT22;8620;51.168;4.154;2023-04-16T13:18:20;12.80;99.90
17007;DHT22;8620;51.168;4.154;2023-04-16T13:21:24;12.70;99.90
17007;DHT22;8620;51.168;4.154;2023-04-16T13:24:23;12.80;99.90
17007;DHT22;8620;51.168;4.154;2023-04-16T13:27:11;12.60;99.90
17007;DHT22;8620;51.168;4.154;2023-04-16T13:30:07;12.90;99.90
17007;DHT22;8620;51.168;4.154;2023-04-16T13:33:31;13.30;99.90
17007;DHT22;8620;51.168;4.154;2023-04-16T13:36:14;13.50;99.90
17007;DHT22;8620;51.168;4.154;2023-04-16T13:39:02;13.60;99.90
17007;DHT22;8620;51.168;4.154;2023-04-16T13:41:50;13.70;99.90
17007;DHT22;8620;51.168;4.154;2023-04-16T13:44:32;13.60;99.90
17007;DHT22;8620;51.168;4.154;2023-04-16T13:47:44;13.30;99.90
17007;DHT22;8620;51.168;4.154;2023-04-16T13:50:37;13.00;99.90
17007;DHT22;8620;51.168;4.154;2023-04-16T13:56:32;12.90;99.90
17007;DHT22;8620;51.168;4.154;2023-04-16T13:59:05;13.10;99.90
17007;DHT22;8620;51.168;4.154;2023-04-16T14:01:31;13.10;99.90
17007;DHT22;8620;51.168;4.154;2023-04-16T14:04:15;13.20;99.90
17007;DHT22;8620;51.168;4.154;2023-04-16T14:06:43;13.40;99.90
17007;DHT22;8620;51.168;4.154;2023-04-16T14:09:26;13.50;99.90
17007;DHT22;8620;51.168;4.154;2023-04-16T14:12:20;13.30;99.90
17007;DHT22;8620;51.168;4.154;2023-04-16T14:15:41;13.00;99.90
17007;DHT22;8620;51.168;4.154;2023-04-16T14:18:52;12.90;99.90
17007;DHT22;8620;51.168;4.154;2023-04-16T14:21:55;13.10;99.90
17007;DHT22;8620;51.168;4.154;2023-04-16T14:24:56;13.60;99.90
17007;DHT22;8620;51.168;4.154;2023-04-16T14:31:10;13.00;99.90
17007;DHT22;8620;51.168;4.154;2023-04-16T14:34:03;13.00;99.90
17007;DHT22;8620;51.168;4.154;2023-04-16T14:37:08;13.20;99.90
17007;DHT22;8620;51.168;4.154;2023-04-16T14:39:57;13.10;99.90
17007;DHT22;8620;51.168;4.154;2023-04-16T14:43:12;13.20;99.90
17007;DHT22;8620;51.168;4.154;2023-04-16T14:46:21;13.20;99.90
17007;DHT22;8620;51.168;4.154;2023-04-16T14:49:11;13.00;99.90
17007;DHT22;8620;51.168;4.154;2023-04-16T14:52:17;12.60;99.90
17007;DHT22;8620;51.168;4.154;2023-04-16T14:55:21;12.80;99.90
17007;DHT22;8620;51.168;4.154;2023-04-16T14:58:21;13.00;99.90
17007;DHT22;8620;51.168;4.154;2023-04-16T15:01:10;13.00;99.90
17007;DHT22;8620;51.168;4.154;2023-04-16T15:03:59;13.30;99.90
17007;DHT22;8620;51.168;4.154;2023-04-16T15:07:05;13.40;99.90
17007;DHT22;8620;51.168;4.154;2023-04-16T15:10:08;13.30;99.90
17007;DHT22;8620;51.168;4.154;2023-04-16T15:12:58;12.90;99.90
17007;DHT22;8620;51.168;4.154;2023-04-16T15:15:58;13.00;99.90
17007;DHT22;8620;51.168;4.154;2023-04-16T15:18:27;12.90;99.90
17007;DHT22;8620;51.168;4.154;2023-04-16T15:20:53;13.00;99.90
17007;DHT22;8620;51.168;4.154;2023-04-16T15:23:20;12.90;99.90
17007;DHT22;8620;51.168;4.154;2023-04-16T15:25:50;12.70;99.90
17007;DHT22;8620;51.168;4.154;2023-04-16T15:28:17;12.90;99.90
17007;DHT22;8620;51.168;4.154;2023-04-16T15:30:47;13.20;99.90
17007;DHT22;8620;51.168;4.154;2023-04-16T15:33:13;13.10;99.90
17007;DHT22;8620;51.168;4.154;2023-04-16T15:35:38;12.80;99.90
17007;DHT22;8620;51.168;4.154;2023-04-16T15:38:11;12.90;99.90
17007;DHT22;8620;51.168;4.154;2023-04-16T15:40:38;12.80;99.90
17007;DHT22;8620;51.168;4.154;2023-04-16T15:43:27;13.00;99.90
17007;DHT22;8620;51.168;4.154;2023-04-16T15:46:00;12.70;99.90
17007;DHT22;8620;51.168;4.154;2023-04-16T15:48:31;12.40;99.90
17007;DHT22;8620;51.168;4.154;2023-04-16T15:51:05;12.70;99.90
17007;DHT22;8620;51.168;4.154;2023-04-16T15:53:38;12.80;99.90
17007;DHT22;8620;51.168;4.154;2023-04-16T15:56:08;12.90;99.90
17007;DHT22;8620;51.168;4.154;2023-04-16T15:58:43;12.60;99.90
17007;DHT22;8620;51.168;4.154;2023-04-16T16:01:21;12.60;99.90
17007;DHT22;8620;51.168;4.154;2023-04-16T16:03:52;12.90;99.90
17007;DHT22;8620;51.168;4.154;2023-04-16T16:06:18;12.60;99.90
17007;DHT22;8620;51.168;4.154;2023-04-16T16:08:45;12.50;99.90
17007;DHT22;8620;51.168;4.154;2023-04-16T16:11:11;12.20;99.90
17007;DHT22;8620;51.168;4.154;2023-04-16T16:13:42;12.20;99.90
17007;DHT22;8620;51.168;4.154;2023-04-16T16:16:13;12.30;99.90
17007;DHT22;8620;51.168;4.154;2023-04-16T16:18:39;12.30;99.90
17007;DHT22;8620;51.168;4.154;2023-04-16T16:21:06;12.30;99.90
17007;DHT22;8620;51.168;4.154;2023-04-16T16:23:32;12.40;99.90
17007;DHT22;8620;51.168;4.154;2023-04-16T16:26:01;12.50;99.90
17007;DHT22;8620;51.168;4.154;2023-04-16T16:28:30;12.40;99.90
17007;DHT22;8620;51.168;4.154;2023-04-16T16:30:56;12.50;99.90
17007;DHT22;8620;51.168;4.154;2023-04-16T16:33:37;12.70;99.90
17007;DHT22;8620;51.168;4.154;2023-04-16T16:36:14;12.70;99.90
17007;DHT22;8620;51.168;4.154;2023-04-16T16:38:46;12.70;99.90
17007;DHT22;8620;51.168;4.154;2023-04-16T16:41:19;12.70;99.90
17007;DHT22;8620;51.168;4.154;2023-04-16T16:43:49;12.80;99.90
17007;DHT22;8620;51.168;4.154;2023-04-16T16:46:21;12.60;99.90
17007;DHT22;8620;51.168;4.154;2023-04-16T16:48:50;12.60;99.90
17007;DHT22;8620;51.168;4.154;2023-04-16T16:51:40;12.40;99.90
17007;DHT22;8620;51.168;4.154;2023-04-16T16:54:06;12.30;99.90
17007;DHT22;8620;51.168;4.154;2023-04-16T16:56:41;12.30;99.90
17007;DHT22;8620;51.168;4.154;2023-04-16T16:59:10;12.70;99.90
17007;DHT22;8620;51.168;4.154;2023-04-16T17:01:52;12.80;99.90
17007;DHT22;8620;51.168;4.154;2023-04-16T17:05:19;12.90;99.90
17007;DHT22;8620;51.168;4.154;2023-04-16T17:08:30;13.20;99.90
17007;DHT22;8620;51.168;4.154;2023-04-16T17:11:35;13.00;99.90
17007;DHT22;8620;51.168;4.154;2023-04-16T17:14:42;13.00;99.90
17007;DHT22;8620;51.168;4.154;2023-04-16T17:17:30;12.70;99.90
17007;DHT22;8620;51.168;4.154;2023-04-16T17:20:10;12.70;99.90
17007;DHT22;8620;51.168;4.154;2023-04-16T17:23:01;12.70;99.90
17007;DHT22;8620;51.168;4.154;2023-04-16T17:25:55;12.50;99.90
17007;DHT22;8620;51.168;4.154;2023-04-16T17:31:40;12.50;99.90
17007;DHT22;8620;51.168;4.154;2023-04-16T17:34:06;12.80;99.90
17007;DHT22;8620;51.168;4.154;2023-04-16T17:37:07;12.80;99.90
17007;DHT22;8620;51.168;4.154;2023-04-16T17:40:14;12.60;99.90
17007;DHT22;8620;51.168;4.154;2023-04-16T17:43:23;12.40;99.90
17007;DHT22;8620;51.168;4.154;2023-04-16T17:45:57;12.30;99.90
17007;DHT22;8620;51.168;4.154;2023-04-16T17:48:34;12.50;99.90
17007;DHT22;8620;51.168;4.154;2023-04-16T17:51:09;12.70;99.90
17007;DHT22;8620;51.168;4.154;2023-04-16T17:53:38;12.70;99.90
17007;DHT22;8620;51.168;4.154;2023-04-16T17:56:08;12.80;99.90
17007;DHT22;8620;51.168;4.154;2023-04-16T17:59:17;12.70;99.90
17007;DHT22;8620;51.168;4.154;2023-04-16T18:04:50;12.80;99.90
17007;DHT22;8620;51.168;4.154;2023-04-16T18:07:25;12.60;99.90
17007;DHT22;8620;51.168;4.154;2023-04-16T18:09:54;12.30;99.90
17007;DHT22;8620;51.168;4.154;2023-04-16T18:12:31;12.30;99.90
17007;DHT22;8620;51.168;4.154;2023-04-16T18:15:39;12.40;99.90
17007;DHT22;8620;51.168;4.154;2023-04-16T18:18:44;12.40;99.90
17007;DHT22;8620;51.168;4.154;2023-04-16T18:21:46;12.20;99.90
17007;DHT22;8620;51.168;4.154;2023-04-16T18:24:33;12.10;99.90
17007;DHT22;8620;51.168;4.154;2023-04-16T18:27:38;12.20;99.90
17007;DHT22;8620;51.168;4.154;2023-04-16T18:30:10;12.30;99.90
17007;DHT22;8620;51.168;4.154;2023-04-16T18:32:44;12.50;99.90
17007;DHT22;8620;51.168;4.154;2023-04-16T18:35:21;12.50;99.90
17007;DHT22;8620;51.168;4.154;2023-04-16T18:37:50;12.30;99.90
17007;DHT22;8620;51.168;4.154;2023-04-16T18:40:59;12.20;99.90
17007;DHT22;8620;51.168;4.154;2023-04-16T18:43:57;12.20;99.90
17007;DHT22;8620;51.168;4.154;2023-04-16T18:46:29;12.10;99.90
17007;DHT22;8620;51.168;4.154;2023-04-16T18:48:57;12.20;99.90
17007;DHT22;8620;51.168;4.154;2023-04-16T18:51:29;12.00;99.90
17007;DHT22;8620;51.168;4.154;2023-04-16T18:53:57;12.00;99.90
17007;DHT22;8620;51.168;4.154;2023-04-16T18:56:46;12.10;99.90
17007;DHT22;8620;51.168;4.154;2023-04-16T18:59:35;12.10;99.90
17007;DHT22;8620;51.168;4.154;2023-04-16T19:02:16;12.00;99.90
17007;DHT22;8620;51.168;4.154;2023-04-16T19:05:03;12.00;99.90
17007;DHT22;8620;51.168;4.154;2023-04-16T19:07:52;12.10;99.90
17007;DHT22;8620;51.168;4.154;2023-04-16T19:10:18;11.90;99.90
17007;DHT22;8620;51.168;4.154;2023-04-16T19:12:47;12.00;99.90
17007;DHT22;8620;51.168;4.154;2023-04-16T19:15:20;12.10;99.90
17007;DHT22;8620;51.168;4.154;2023-04-16T19:17:57;12.10;99.90
17007;DHT22;8620;51.168;4.154;2023-04-16T19:20:23;12.10;99.90
17007;DHT22;8620;51.168;4.154;2023-04-16T19:22:49;11.80;99.90
17007;DHT22;8620;51.168;4.154;2023-04-16T19:25:28;11.50;99.90
17007;DHT22;8620;51.168;4.154;2023-04-16T19:28:01;11.60;99.90
17007;DHT22;8620;51.168;4.154;2023-04-16T19:30:33;11.70;99.90
17007;DHT22;8620;51.168;4.154;2023-04-16T19:33:12;11.70;99.90
17007;DHT22;8620;51.168;4.154;2023-04-16T19:35:58;11.70;99.90
17007;DHT22;8620;51.168;4.154;2023-04-16T19:38:30;11.90;99.90
17007;DHT22;8620;51.168;4.154;2023-04-16T19:41:07;12.00;99.90
17007;DHT22;8620;51.168;4.154;2023-04-16T19:43:38;11.90;99.90
17007;DHT22;8620;51.168;4.154;2023-04-16T19:46:07;11.80;99.90
17007;DHT22;8620;51.168;4.154;2023-04-16T19:48:41;11.70;99.90
17007;DHT22;8620;51.168;4.154;2023-04-16T19:51:16;11.80;99.90
17007;DHT22;8620;51.168;4.154;2023-04-16T19:53:44;11.50;99.90
17007;DHT22;8620;51.168;4.154;2023-04-16T19:56:16;11.60;99.90
17007;DHT22;8620;51.168;4.154;2023-04-16T19:58:50;11.70;99.90
17007;DHT22;8620;51.168;4.154;2023-04-16T20:02:00;11.80;99.90
17007;DHT22;8620;51.168;4.154;2023-04-16T20:04:51;11.80;99.90
17007;DHT22;8620;51.168;4.154;2023-04-16T20:07:22;11.80;99.90
17007;DHT22;8620;51.168;4.154;2023-04-16T20:09:48;11.60;99.90
17007;DHT22;8620;51.168;4.154;2023-04-16T20:12:20;11.50;99.90
17007;DHT22;8620;51.168;4.154;2023-04-16T20:14:48;11.50;99.90
17007;DHT22;8620;51.168;4.154;2023-04-16T20:17:17;11.30;99.90
17007;DHT22;8620;51.168;4.154;2023-04-16T20:19:54;11.40;99.90
17007;DHT22;8620;51.168;4.154;2023-04-16T20:22:37;11.50;99.90
17007;DHT22;8620;51.168;4.154;2023-04-16T20:25:05;11.50;99.90
17007;DHT22;8620;51.168;4.154;2023-04-16T20:27:37;11.40;99.90
17007;DHT22;8620;51.168;4.154;2023-04-16T20:30:08;11.20;99.90
17007;DHT22;8620;51.168;4.154;2023-04-16T20:32:40;11.60;99.90
17007;DHT22;8620;51.168;4.154;2023-04-16T20:35:10;11.70;99.90
17007;DHT22;8620;51.168;4.154;2023-04-16T20:37:45;11.70;99.90
17007;DHT22;8620;51.168;4.154;2023-04-16T20:40:16;11.60;99.90
17007;DHT22;8620;51.168;4.154;2023-04-16T20:42:47;11.50;99.90
17007;DHT22;8620;51.168;4.154;2023-04-16T20:45:21;11.50;99.90
17007;DHT22;8620;51.168;4.154;2023-04-16T20:47:54;11.20;99.90
17007;DHT22;8620;51.168;4.154;2023-04-16T20:50:25;11.30;99.90
17007;DHT22;8620;51.168;4.154;2023-04-16T20:52:56;11.10;99.90
17007;DHT22;8620;51.168;4.154;2023-04-16T20:55:27;11.10;99.90
17007;DHT22;8620;51.168;4.154;2023-04-16T20:57:56;11.20;99.90
